createdAt,value
2019-02-26T00:51:03.127Z,6.10
2019-02-26T00:53:55.004Z,6.00
2019-02-26T00:59:50.404Z,6.00
2019-02-26T01:02:39.832Z,6.00
2019-02-26T01:41:18.101Z,5.50
2019-02-26T01:44:11.439Z,5.40
2019-02-26T01:47:02.529Z,5.40
2019-02-26T03:12:55.289Z,4.70
2019-02-26T03:15:43.330Z,4.60
2019-02-26T03:37:49.617Z,4.10
2019-02-26T03:40:44.559Z,4.10
2019-02-26T03:43:31.436Z,4.20
2019-02-26T03:46:03.477Z,4.20
2019-02-26T03:48:52.923Z,4.30
2019-02-26T05:09:02.679Z,3.60
2019-02-26T05:48:25.782Z,3.70
2019-02-26T05:51:14.969Z,3.70
2019-02-26T06:26:37.674Z,3.00
2019-02-26T06:29:34.941Z,3.00
2019-02-26T06:55:00.207Z,3.40
2019-02-26T06:57:50.906Z,3.40
2019-02-26T07:00:36.237Z,3.50
2019-02-26T07:03:07.089Z,3.50
2019-02-26T07:05:56.646Z,3.50
2019-02-26T07:28:53.642Z,4.30
2019-02-26T07:31:43.134Z,5.50
2019-02-26T08:16:18.776Z,15.00
2019-02-26T08:19:09.412Z,15.60
2019-02-26T08:35:21.091Z,17.20
2019-02-26T08:38:10.643Z,17.60
2019-02-26T08:47:13.944Z,18.50
2019-02-26T08:50:10.490Z,19.10
2019-02-26T08:52:58.502Z,19.50
2019-02-26T09:09:11.715Z,20.70
2019-02-26T09:12:03.258Z,20.50
2019-02-26T09:43:25.961Z,24.20
2019-02-26T09:46:16.209Z,24.40
2019-02-26T10:12:55.841Z,27.80
2019-02-26T10:31:40.424Z,27.40
2019-02-26T10:34:30.362Z,28.00
2019-02-26T11:09:58.599Z,29.80
2019-02-26T11:12:48.241Z,29.50
2019-02-26T11:31:53.411Z,30.40
2019-02-26T11:34:42.886Z,30.80
2019-02-26T11:44:07.117Z,32.20
2019-02-26T11:46:56.751Z,32.80
2019-02-26T12:22:00.784Z,35.30
2019-02-26T12:24:53.083Z,35.60
2019-02-26T12:49:47.550Z,35.90
2019-02-26T12:52:37.160Z,36.10
2019-02-26T12:58:28.288Z,36.30
2019-02-26T13:01:18.010Z,35.80
2019-02-26T13:34:18.346Z,34.90
2019-02-26T13:37:07.792Z,34.40
2019-02-26T14:00:11.007Z,33.20
2019-02-26T14:22:36.628Z,34.70
2019-02-26T14:25:26.420Z,35.00
2019-02-26T14:34:46.678Z,33.70
2019-02-26T14:37:35.902Z,34.00
2019-02-26T14:46:56.742Z,34.00
2019-02-26T14:49:46.220Z,33.70
2019-02-26T15:34:49.403Z,29.60
2019-02-26T15:37:38.678Z,28.00
2019-02-26T15:46:54.493Z,25.00
2019-02-26T15:49:40.858Z,24.30
2019-02-26T16:05:11.576Z,22.10
2019-02-26T16:08:01.046Z,21.90
2019-02-26T16:27:47.840Z,20.90
2019-02-26T16:32:41.775Z,20.50
2019-02-26T16:35:12.355Z,20.50
2019-02-26T16:37:43.483Z,20.30
2019-02-26T16:40:15.108Z,20.20
2019-02-26T16:42:45.999Z,20.10
2019-02-26T16:45:21.641Z,20.10
2019-02-26T16:47:52.586Z,20.10
2019-02-26T16:50:24.164Z,20.00
2019-02-26T16:52:57.870Z,19.90
2019-02-26T16:55:28.072Z,19.80
2019-02-26T16:58:02.157Z,19.90
2019-02-26T17:00:31.612Z,19.80
2019-02-26T17:03:03.002Z,19.60
2019-02-26T17:05:34.090Z,19.40
2019-02-26T17:08:05.247Z,19.10
2019-02-26T17:10:36.660Z,18.80
2019-02-26T17:13:08.774Z,18.50
2019-02-26T17:15:39.511Z,18.00
2019-02-26T17:18:10.407Z,17.70
2019-02-26T17:20:41.553Z,17.40
2019-02-26T17:23:14.516Z,17.20
2019-02-26T17:25:45.286Z,17.00
2019-02-26T17:28:15.857Z,16.80
2019-02-26T17:30:46.824Z,16.60
2019-02-26T17:33:17.951Z,16.40
2019-02-26T17:35:48.301Z,16.30
2019-02-26T17:38:19.435Z,16.10
2019-02-26T17:40:50.163Z,16.00
2019-02-26T17:43:22.845Z,15.90
2019-02-26T17:45:53.291Z,15.70
2019-02-26T17:48:24.235Z,15.60
2019-02-26T17:50:54.670Z,15.50
2019-02-26T17:53:27.638Z,15.50
2019-02-26T17:55:57.787Z,15.30
2019-02-26T17:58:28.830Z,15.20
2019-02-26T18:00:59.611Z,15.10
2019-02-26T18:03:29.895Z,15.00
2019-02-26T18:06:00.361Z,14.90
2019-02-26T18:08:31.580Z,14.70
2019-02-26T18:11:01.921Z,14.60
2019-02-26T18:13:32.952Z,14.40
2019-02-26T18:16:09.194Z,14.30
2019-02-26T18:18:36.167Z,14.30
2019-02-26T18:21:07.113Z,14.20
2019-02-26T18:23:38.330Z,14.20
2019-02-26T18:26:09.815Z,14.10
2019-02-26T18:28:40.558Z,14.00
2019-02-26T18:31:10.833Z,13.90
2019-02-26T18:33:41.421Z,13.80
2019-02-26T18:36:11.685Z,13.70
2019-02-26T18:38:42.640Z,13.60
2019-02-26T18:41:13.220Z,13.50
2019-02-26T18:43:47.179Z,13.30
2019-02-26T18:46:16.549Z,13.20
2019-02-26T18:48:48.736Z,13.00
2019-02-26T18:51:21.101Z,12.90
2019-02-26T18:53:51.226Z,12.90
2019-02-26T18:56:22.167Z,12.90
2019-02-26T18:58:53.312Z,13.00
2019-02-26T19:01:24.253Z,13.00
2019-02-26T19:03:55.610Z,13.00
2019-02-26T19:06:27.464Z,13.00
2019-02-26T19:08:59.749Z,12.90
2019-02-26T19:11:30.490Z,12.80
2019-02-26T19:14:02.655Z,12.80
2019-02-26T19:16:33.809Z,12.70
2019-02-26T19:19:03.927Z,12.70
2019-02-26T19:21:34.209Z,12.60
2019-02-26T19:24:05.280Z,12.50
2019-02-26T19:26:36.303Z,12.50
2019-02-26T19:29:07.093Z,12.40
2019-02-26T19:31:38.071Z,12.40
2019-02-26T19:34:08.157Z,12.30
2019-02-26T19:36:38.393Z,12.30
2019-02-26T19:39:09.845Z,12.30
2019-02-26T19:41:40.644Z,12.30
2019-02-26T19:44:11.732Z,12.30
2019-02-26T19:46:42.214Z,12.30
2019-02-26T19:49:12.797Z,12.30
2019-02-26T19:51:44.577Z,12.20
2019-02-26T19:54:15.291Z,12.20
2019-02-26T19:56:46.633Z,12.10
2019-02-26T19:59:16.785Z,12.00
2019-02-26T20:01:46.934Z,11.90
2019-02-26T20:04:17.839Z,11.80
2019-02-26T20:06:49.060Z,11.70
2019-02-26T20:09:20.981Z,11.70
2019-02-26T20:11:53.601Z,11.70
2019-02-26T20:14:24.277Z,11.70
2019-02-26T20:16:55.175Z,11.60
2019-02-26T20:19:26.581Z,11.60
2019-02-26T20:21:57.922Z,11.50
2019-02-26T20:24:28.257Z,11.40
2019-02-26T20:26:58.979Z,11.30
2019-02-26T20:29:29.582Z,11.10
2019-02-26T20:31:59.804Z,11.00
2019-02-26T20:34:31.206Z,11.00
2019-02-26T20:37:02.967Z,10.90
2019-02-26T20:39:34.190Z,10.70
2019-02-26T20:42:05.416Z,10.70
2019-02-26T20:44:37.234Z,10.60
2019-02-26T20:47:07.997Z,10.60
2019-02-26T20:49:39.580Z,10.60
2019-02-26T20:52:09.988Z,10.60
2019-02-26T20:54:44.435Z,10.50
2019-02-26T20:57:12.558Z,10.50
2019-02-26T20:59:43.273Z,10.50
2019-02-26T21:02:14.055Z,10.40
2019-02-26T21:04:44.576Z,10.30
2019-02-26T21:07:15.946Z,10.20
2019-02-26T21:09:46.492Z,10.20
2019-02-26T21:12:17.823Z,10.00
2019-02-26T21:14:49.161Z,9.80
2019-02-26T21:17:19.652Z,9.70
2019-02-26T21:19:49.710Z,9.70
2019-02-26T21:22:21.996Z,9.60
2019-02-26T21:24:53.354Z,9.60
2019-02-26T21:27:25.952Z,9.50
2019-02-26T21:29:57.953Z,9.40
2019-02-26T21:32:28.012Z,9.40
2019-02-26T21:34:58.350Z,9.50
2019-02-26T21:37:32.602Z,9.50
2019-02-26T21:40:01.088Z,9.50
2019-02-26T21:42:33.024Z,9.50
2019-02-26T21:45:03.562Z,9.50
2019-02-26T21:47:34.649Z,9.50
2019-02-26T21:50:05.239Z,9.40
2019-02-26T21:52:35.400Z,9.40
2019-02-26T21:55:07.012Z,9.40
2019-02-26T21:57:37.834Z,9.30
2019-02-26T22:00:10.925Z,9.30
2019-02-26T22:02:41.643Z,9.30
2019-02-26T22:05:12.810Z,9.30
2019-02-26T22:07:43.042Z,9.30
2019-02-26T22:10:14.676Z,9.30
2019-02-26T22:12:45.317Z,9.30
2019-02-26T22:15:16.100Z,9.30
2019-02-26T22:17:47.051Z,9.30
2019-02-26T22:20:26.737Z,9.20
2019-02-26T22:22:50.656Z,9.20
2019-02-26T22:25:21.515Z,9.20
2019-02-26T22:27:52.462Z,9.10
2019-02-26T22:30:23.331Z,9.00
2019-02-26T22:32:53.099Z,9.00
2019-02-26T22:35:25.768Z,8.90
2019-02-26T22:37:56.047Z,8.80
2019-02-26T22:40:28.902Z,8.70
2019-02-26T22:42:57.919Z,8.70
2019-02-26T22:45:28.512Z,8.60
2019-02-26T22:48:00.619Z,8.60
2019-02-26T22:50:31.977Z,8.50
2019-02-26T22:53:03.949Z,8.50
2019-02-26T22:55:36.519Z,8.40
2019-02-26T22:58:07.662Z,8.30
2019-02-26T23:01:11.581Z,8.30
2019-02-26T23:03:46.582Z,8.20
2019-02-26T23:06:19.611Z,8.20
2019-02-26T23:08:49.915Z,8.20
2019-02-26T23:11:20.890Z,8.20
2019-02-26T23:13:52.854Z,8.10
2019-02-26T23:16:24.103Z,8.10
2019-02-26T23:18:55.611Z,8.00
2019-02-26T23:21:27.945Z,7.90
2019-02-26T23:24:00.509Z,7.80
2019-02-26T23:26:31.073Z,7.80
2019-02-26T23:29:02.405Z,7.80
2019-02-26T23:31:34.575Z,7.80
2019-02-26T23:34:05.342Z,7.70
2019-02-26T23:36:35.850Z,7.70
2019-02-26T23:39:10.613Z,7.80
2019-02-26T23:41:43.255Z,7.70
2019-02-26T23:44:17.832Z,7.70
2019-02-26T23:46:48.369Z,7.70
2019-02-26T23:49:19.371Z,7.60
2019-02-26T23:51:50.970Z,7.70
2019-02-26T23:54:23.509Z,7.60
2019-02-26T23:56:54.247Z,7.60
2019-02-26T23:59:25.003Z,7.50
